sensor_id;sensor_type;location;lat;lon;timestamp;P1;durP1;ratioP1;P2;durP2;ratioP2
13485;SDS011;6815;59.336;17.998;2023-06-04T00:01:07;4.25;;;2.00;;
13485;SDS011;6815;59.336;17.998;2023-06-04T00:03:33;3.17;;;2.08;;
13485;SDS011;6815;59.336;17.998;2023-06-04T00:05:59;2.63;;;1.90;;
13485;SDS011;6815;59.336;17.998;2023-06-04T00:08:25;2.25;;;1.80;;
13485;SDS011;6815;59.336;17.998;2023-06-04T00:10:50;1.80;;;1.67;;
13485;SDS011;6815;59.336;17.998;2023-06-04T00:13:16;2.57;;;1.70;;
13485;SDS011;6815;59.336;17.998;2023-06-04T00:15:41;2.42;;;2.05;;
13485;SDS011;6815;59.336;17.998;2023-06-04T00:18:07;2.90;;;1.60;;
13485;SDS011;6815;59.336;17.998;2023-06-04T00:20:32;2.80;;;1.90;;
13485;SDS011;6815;59.336;17.998;2023-06-04T00:22:58;1.92;;;1.45;;
13485;SDS011;6815;59.336;17.998;2023-06-04T00:25:24;2.42;;;1.70;;
13485;SDS011;6815;59.336;17.998;2023-06-04T00:27:49;2.80;;;1.60;;
13485;SDS011;6815;59.336;17.998;2023-06-04T00:30:14;2.65;;;1.90;;
13485;SDS011;6815;59.336;17.998;2023-06-04T00:32:40;2.77;;;1.50;;
13485;SDS011;6815;59.336;17.998;2023-06-04T00:35:06;2.10;;;1.50;;
13485;SDS011;6815;59.336;17.998;2023-06-04T00:37:32;2.37;;;1.50;;
13485;SDS011;6815;59.336;17.998;2023-06-04T00:39:58;3.43;;;1.93;;
13485;SDS011;6815;59.336;17.998;2023-06-04T00:42:24;1.77;;;1.60;;
13485;SDS011;6815;59.336;17.998;2023-06-04T00:44:49;2.27;;;1.23;;
13485;SDS011;6815;59.336;17.998;2023-06-04T00:47:15;2.45;;;1.65;;
13485;SDS011;6815;59.336;17.998;2023-06-04T00:49:42;3.27;;;1.63;;
13485;SDS011;6815;59.336;17.998;2023-06-04T00:52:08;3.03;;;1.60;;
13485;SDS011;6815;59.336;17.998;2023-06-04T00:54:35;3.40;;;1.50;;
13485;SDS011;6815;59.336;17.998;2023-06-04T00:57:02;1.60;;;1.50;;
13485;SDS011;6815;59.336;17.998;2023-06-04T00:59:28;3.03;;;1.50;;
13485;SDS011;6815;59.336;17.998;2023-06-04T01:02:02;2.00;;;1.70;;
13485;SDS011;6815;59.336;17.998;2023-06-04T01:04:46;2.17;;;1.50;;
13485;SDS011;6815;59.336;17.998;2023-06-04T01:07:34;2.30;;;1.70;;
13485;SDS011;6815;59.336;17.998;2023-06-04T01:10:00;3.00;;;1.67;;
13485;SDS011;6815;59.336;17.998;2023-06-04T01:12:26;2.90;;;1.93;;
13485;SDS011;6815;59.336;17.998;2023-06-04T01:14:51;3.80;;;1.93;;
13485;SDS011;6815;59.336;17.998;2023-06-04T01:22:17;2.07;;;1.87;;
13485;SDS011;6815;59.336;17.998;2023-06-04T01:25:25;2.70;;;2.03;;
13485;SDS011;6815;59.336;17.998;2023-06-04T01:27:58;1.73;;;1.63;;
13485;SDS011;6815;59.336;17.998;2023-06-04T01:30:31;3.00;;;1.80;;
13485;SDS011;6815;59.336;17.998;2023-06-04T01:32:58;1.90;;;1.30;;
13485;SDS011;6815;59.336;17.998;2023-06-04T01:35:25;1.80;;;1.50;;
13485;SDS011;6815;59.336;17.998;2023-06-04T01:37:52;1.43;;;1.20;;
13485;SDS011;6815;59.336;17.998;2023-06-04T01:40:17;3.70;;;1.70;;
13485;SDS011;6815;59.336;17.998;2023-06-04T01:42:43;3.03;;;1.30;;
13485;SDS011;6815;59.336;17.998;2023-06-04T01:45:08;2.17;;;1.33;;
13485;SDS011;6815;59.336;17.998;2023-06-04T01:47:34;3.50;;;1.70;;
13485;SDS011;6815;59.336;17.998;2023-06-04T01:50:00;2.00;;;1.20;;
13485;SDS011;6815;59.336;17.998;2023-06-04T01:52:26;1.53;;;1.30;;
13485;SDS011;6815;59.336;17.998;2023-06-04T01:54:51;3.00;;;1.23;;
13485;SDS011;6815;59.336;17.998;2023-06-04T01:57:21;1.83;;;1.50;;
13485;SDS011;6815;59.336;17.998;2023-06-04T01:59:46;2.40;;;1.57;;
13485;SDS011;6815;59.336;17.998;2023-06-04T02:02:12;2.17;;;1.47;;
13485;SDS011;6815;59.336;17.998;2023-06-04T02:04:38;2.63;;;2.00;;
13485;SDS011;6815;59.336;17.998;2023-06-04T02:07:08;2.63;;;1.60;;
13485;SDS011;6815;59.336;17.998;2023-06-04T02:09:34;3.27;;;1.50;;
13485;SDS011;6815;59.336;17.998;2023-06-04T02:12:00;2.07;;;1.40;;
13485;SDS011;6815;59.336;17.998;2023-06-04T02:14:25;1.63;;;1.40;;
13485;SDS011;6815;59.336;17.998;2023-06-04T02:16:51;2.13;;;1.87;;
13485;SDS011;6815;59.336;17.998;2023-06-04T02:19:19;2.03;;;1.50;;
13485;SDS011;6815;59.336;17.998;2023-06-04T02:21:45;2.60;;;1.80;;
13485;SDS011;6815;59.336;17.998;2023-06-04T02:24:10;1.70;;;1.53;;
13485;SDS011;6815;59.336;17.998;2023-06-04T02:26:35;2.10;;;1.53;;
13485;SDS011;6815;59.336;17.998;2023-06-04T02:29:01;1.30;;;1.20;;
13485;SDS011;6815;59.336;17.998;2023-06-04T02:31:27;2.47;;;1.13;;
13485;SDS011;6815;59.336;17.998;2023-06-04T02:33:52;1.43;;;1.00;;
13485;SDS011;6815;59.336;17.998;2023-06-04T02:36:17;2.33;;;1.47;;
13485;SDS011;6815;59.336;17.998;2023-06-04T02:38:43;0.97;;;0.80;;
13485;SDS011;6815;59.336;17.998;2023-06-04T02:41:08;1.43;;;1.10;;
13485;SDS011;6815;59.336;17.998;2023-06-04T02:43:34;1.67;;;0.90;;
13485;SDS011;6815;59.336;17.998;2023-06-04T02:45:59;1.10;;;0.83;;
13485;SDS011;6815;59.336;17.998;2023-06-04T02:48:25;0.73;;;0.73;;
13485;SDS011;6815;59.336;17.998;2023-06-04T02:50:50;2.00;;;1.00;;
13485;SDS011;6815;59.336;17.998;2023-06-04T02:53:16;1.87;;;0.80;;
13485;SDS011;6815;59.336;17.998;2023-06-04T02:55:41;1.37;;;0.80;;
13485;SDS011;6815;59.336;17.998;2023-06-04T02:58:07;1.80;;;1.00;;
13485;SDS011;6815;59.336;17.998;2023-06-04T03:00:34;0.70;;;0.70;;
13485;SDS011;6815;59.336;17.998;2023-06-04T03:02:59;1.90;;;0.90;;
13485;SDS011;6815;59.336;17.998;2023-06-04T03:05:28;1.67;;;0.70;;
13485;SDS011;6815;59.336;17.998;2023-06-04T03:07:56;0.80;;;0.60;;
13485;SDS011;6815;59.336;17.998;2023-06-04T03:10:23;0.90;;;0.60;;
13485;SDS011;6815;59.336;17.998;2023-06-04T03:12:49;1.80;;;0.80;;
13485;SDS011;6815;59.336;17.998;2023-06-04T03:15:14;2.50;;;0.90;;
13485;SDS011;6815;59.336;17.998;2023-06-04T03:17:40;0.90;;;0.60;;
13485;SDS011;6815;59.336;17.998;2023-06-04T03:20:06;1.00;;;0.70;;
13485;SDS011;6815;59.336;17.998;2023-06-04T03:22:32;2.37;;;0.70;;
13485;SDS011;6815;59.336;17.998;2023-06-04T03:25:00;0.93;;;0.63;;
13485;SDS011;6815;59.336;17.998;2023-06-04T03:27:26;2.17;;;0.73;;
13485;SDS011;6815;59.336;17.998;2023-06-04T03:29:51;3.70;;;0.70;;
13485;SDS011;6815;59.336;17.998;2023-06-04T03:32:17;1.33;;;0.80;;
13485;SDS011;6815;59.336;17.998;2023-06-04T03:34:43;0.67;;;0.60;;
13485;SDS011;6815;59.336;17.998;2023-06-04T03:37:09;0.93;;;0.87;;
13485;SDS011;6815;59.336;17.998;2023-06-04T03:39:34;2.00;;;1.03;;
13485;SDS011;6815;59.336;17.998;2023-06-04T03:42:00;1.37;;;0.60;;
13485;SDS011;6815;59.336;17.998;2023-06-04T03:44:25;0.80;;;0.67;;
13485;SDS011;6815;59.336;17.998;2023-06-04T03:46:51;2.03;;;0.67;;
13485;SDS011;6815;59.336;17.998;2023-06-04T03:49:16;0.60;;;0.60;;
13485;SDS011;6815;59.336;17.998;2023-06-04T03:51:42;1.63;;;0.80;;
13485;SDS011;6815;59.336;17.998;2023-06-04T03:54:08;1.13;;;0.73;;
13485;SDS011;6815;59.336;17.998;2023-06-04T03:56:33;1.33;;;0.70;;
13485;SDS011;6815;59.336;17.998;2023-06-04T03:58:59;1.37;;;0.87;;
13485;SDS011;6815;59.336;17.998;2023-06-04T04:01:25;1.27;;;0.73;;
13485;SDS011;6815;59.336;17.998;2023-06-04T04:03:51;2.27;;;0.90;;
13485;SDS011;6815;59.336;17.998;2023-06-04T04:06:17;0.93;;;0.83;;
13485;SDS011;6815;59.336;17.998;2023-06-04T04:08:43;2.53;;;0.77;;
13485;SDS011;6815;59.336;17.998;2023-06-04T04:11:11;0.73;;;0.73;;
13485;SDS011;6815;59.336;17.998;2023-06-04T04:13:37;1.27;;;0.93;;
13485;SDS011;6815;59.336;17.998;2023-06-04T04:16:03;1.47;;;0.80;;
13485;SDS011;6815;59.336;17.998;2023-06-04T04:18:32;1.40;;;0.90;;
13485;SDS011;6815;59.336;17.998;2023-06-04T04:20:58;1.43;;;0.80;;
13485;SDS011;6815;59.336;17.998;2023-06-04T04:23:24;1.27;;;0.73;;
13485;SDS011;6815;59.336;17.998;2023-06-04T04:25:50;0.70;;;0.70;;
13485;SDS011;6815;59.336;17.998;2023-06-04T04:28:15;0.70;;;0.70;;
13485;SDS011;6815;59.336;17.998;2023-06-04T04:30:42;0.73;;;0.60;;
13485;SDS011;6815;59.336;17.998;2023-06-04T04:33:09;0.60;;;0.40;;
13485;SDS011;6815;59.336;17.998;2023-06-04T04:35:35;1.17;;;0.70;;
13485;SDS011;6815;59.336;17.998;2023-06-04T04:38:01;0.60;;;0.60;;
13485;SDS011;6815;59.336;17.998;2023-06-04T04:40:30;4.67;;;0.70;;
13485;SDS011;6815;59.336;17.998;2023-06-04T04:42:56;1.43;;;0.70;;
13485;SDS011;6815;59.336;17.998;2023-06-04T04:45:23;0.80;;;0.70;;
13485;SDS011;6815;59.336;17.998;2023-06-04T04:47:48;1.40;;;0.60;;
13485;SDS011;6815;59.336;17.998;2023-06-04T04:50:15;0.67;;;0.60;;
13485;SDS011;6815;59.336;17.998;2023-06-04T04:52:41;1.67;;;0.63;;
13485;SDS011;6815;59.336;17.998;2023-06-04T04:55:07;1.07;;;0.80;;
13485;SDS011;6815;59.336;17.998;2023-06-04T04:57:32;0.63;;;0.60;;
13485;SDS011;6815;59.336;17.998;2023-06-04T04:59:58;0.90;;;0.70;;
13485;SDS011;6815;59.336;17.998;2023-06-04T05:02:23;0.50;;;0.50;;
13485;SDS011;6815;59.336;17.998;2023-06-04T05:04:49;1.50;;;0.70;;
13485;SDS011;6815;59.336;17.998;2023-06-04T05:07:14;1.13;;;0.73;;
13485;SDS011;6815;59.336;17.998;2023-06-04T05:09:40;1.63;;;0.40;;
13485;SDS011;6815;59.336;17.998;2023-06-04T05:12:05;0.50;;;0.50;;
13485;SDS011;6815;59.336;17.998;2023-06-04T05:14:31;0.57;;;0.57;;
13485;SDS011;6815;59.336;17.998;2023-06-04T05:16:57;0.82;;;0.50;;
13485;SDS011;6815;59.336;17.998;2023-06-04T05:19:22;1.10;;;0.50;;
13485;SDS011;6815;59.336;17.998;2023-06-04T05:21:49;0.60;;;0.60;;
13485;SDS011;6815;59.336;17.998;2023-06-04T05:24:15;0.60;;;0.40;;
13485;SDS011;6815;59.336;17.998;2023-06-04T05:26:40;0.57;;;0.50;;
13485;SDS011;6815;59.336;17.998;2023-06-04T05:29:06;0.52;;;0.52;;
13485;SDS011;6815;59.336;17.998;2023-06-04T05:31:32;0.47;;;0.47;;
13485;SDS011;6815;59.336;17.998;2023-06-04T05:34:01;1.85;;;0.57;;
13485;SDS011;6815;59.336;17.998;2023-06-04T05:36:29;0.40;;;0.40;;
13485;SDS011;6815;59.336;17.998;2023-06-04T05:38:55;1.60;;;0.60;;
13485;SDS011;6815;59.336;17.998;2023-06-04T05:41:25;1.23;;;0.43;;
13485;SDS011;6815;59.336;17.998;2023-06-04T05:43:51;1.23;;;0.60;;
13485;SDS011;6815;59.336;17.998;2023-06-04T05:46:17;0.50;;;0.50;;
13485;SDS011;6815;59.336;17.998;2023-06-04T05:48:42;0.50;;;0.40;;
13485;SDS011;6815;59.336;17.998;2023-06-04T05:51:08;0.93;;;0.50;;
13485;SDS011;6815;59.336;17.998;2023-06-04T05:53:33;0.40;;;0.40;;
13485;SDS011;6815;59.336;17.998;2023-06-04T05:55:59;0.50;;;0.50;;
13485;SDS011;6815;59.336;17.998;2023-06-04T05:58:24;0.38;;;0.38;;
13485;SDS011;6815;59.336;17.998;2023-06-04T06:00:50;0.32;;;0.30;;
13485;SDS011;6815;59.336;17.998;2023-06-04T06:03:16;0.40;;;0.40;;
13485;SDS011;6815;59.336;17.998;2023-06-04T06:05:41;0.90;;;0.40;;
13485;SDS011;6815;59.336;17.998;2023-06-04T06:08:08;0.65;;;0.40;;
13485;SDS011;6815;59.336;17.998;2023-06-04T06:10:33;0.30;;;0.30;;
13485;SDS011;6815;59.336;17.998;2023-06-04T06:12:59;0.50;;;0.43;;
13485;SDS011;6815;59.336;17.998;2023-06-04T06:15:25;0.40;;;0.40;;
13485;SDS011;6815;59.336;17.998;2023-06-04T06:17:51;0.60;;;0.50;;
13485;SDS011;6815;59.336;17.998;2023-06-04T06:20:17;0.75;;;0.40;;
13485;SDS011;6815;59.336;17.998;2023-06-04T06:22:43;0.75;;;0.40;;
13485;SDS011;6815;59.336;17.998;2023-06-04T06:25:09;0.50;;;0.45;;
13485;SDS011;6815;59.336;17.998;2023-06-04T06:27:37;0.40;;;0.40;;
13485;SDS011;6815;59.336;17.998;2023-06-04T06:30:06;0.95;;;0.50;;
13485;SDS011;6815;59.336;17.998;2023-06-04T06:32:32;0.40;;;0.40;;
13485;SDS011;6815;59.336;17.998;2023-06-04T06:34:58;0.43;;;0.40;;
13485;SDS011;6815;59.336;17.998;2023-06-04T06:37:23;0.50;;;0.40;;
13485;SDS011;6815;59.336;17.998;2023-06-04T06:39:49;0.40;;;0.40;;
13485;SDS011;6815;59.336;17.998;2023-06-04T06:42:14;0.55;;;0.50;;
13485;SDS011;6815;59.336;17.998;2023-06-04T06:44:42;0.57;;;0.40;;
13485;SDS011;6815;59.336;17.998;2023-06-04T06:47:07;0.60;;;0.35;;
13485;SDS011;6815;59.336;17.998;2023-06-04T06:49:33;0.40;;;0.40;;
13485;SDS011;6815;59.336;17.998;2023-06-04T06:51:58;0.40;;;0.40;;
13485;SDS011;6815;59.336;17.998;2023-06-04T06:54:24;0.40;;;0.40;;
13485;SDS011;6815;59.336;17.998;2023-06-04T06:56:49;0.95;;;0.50;;
13485;SDS011;6815;59.336;17.998;2023-06-04T06:59:16;0.57;;;0.30;;
13485;SDS011;6815;59.336;17.998;2023-06-04T07:01:41;0.82;;;0.55;;
13485;SDS011;6815;59.336;17.998;2023-06-04T07:04:07;0.30;;;0.30;;
13485;SDS011;6815;59.336;17.998;2023-06-04T07:06:33;0.50;;;0.40;;
13485;SDS011;6815;59.336;17.998;2023-06-04T07:08:59;0.35;;;0.35;;
13485;SDS011;6815;59.336;17.998;2023-06-04T07:11:24;0.32;;;0.32;;
13485;SDS011;6815;59.336;17.998;2023-06-04T07:13:50;0.52;;;0.40;;
13485;SDS011;6815;59.336;17.998;2023-06-04T07:16:16;0.47;;;0.30;;
13485;SDS011;6815;59.336;17.998;2023-06-04T07:18:42;0.38;;;0.38;;
13485;SDS011;6815;59.336;17.998;2023-06-04T07:21:08;0.40;;;0.40;;
13485;SDS011;6815;59.336;17.998;2023-06-04T07:23:33;0.40;;;0.40;;
13485;SDS011;6815;59.336;17.998;2023-06-04T07:25:59;0.30;;;0.30;;
13485;SDS011;6815;59.336;17.998;2023-06-04T07:28:24;0.65;;;0.40;;
13485;SDS011;6815;59.336;17.998;2023-06-04T07:30:50;0.35;;;0.35;;
13485;SDS011;6815;59.336;17.998;2023-06-04T07:33:15;0.52;;;0.30;;
13485;SDS011;6815;59.336;17.998;2023-06-04T07:35:41;1.17;;;0.30;;
13485;SDS011;6815;59.336;17.998;2023-06-04T07:38:06;1.02;;;0.40;;
13485;SDS011;6815;59.336;17.998;2023-06-04T07:40:32;0.40;;;0.40;;
13485;SDS011;6815;59.336;17.998;2023-06-04T07:42:57;0.32;;;0.32;;
13485;SDS011;6815;59.336;17.998;2023-06-04T07:45:23;0.50;;;0.40;;
13485;SDS011;6815;59.336;17.998;2023-06-04T07:47:48;1.42;;;0.47;;
13485;SDS011;6815;59.336;17.998;2023-06-04T07:50:14;0.60;;;0.40;;
13485;SDS011;6815;59.336;17.998;2023-06-04T07:52:39;0.28;;;0.28;;
13485;SDS011;6815;59.336;17.998;2023-06-04T07:55:05;0.82;;;0.50;;
13485;SDS011;6815;59.336;17.998;2023-06-04T07:57:31;1.55;;;0.32;;
13485;SDS011;6815;59.336;17.998;2023-06-04T07:59:57;0.43;;;0.30;;
13485;SDS011;6815;59.336;17.998;2023-06-04T08:02:22;0.55;;;0.50;;
13485;SDS011;6815;59.336;17.998;2023-06-04T08:04:48;0.20;;;0.20;;
13485;SDS011;6815;59.336;17.998;2023-06-04T08:07:14;0.77;;;0.52;;
13485;SDS011;6815;59.336;17.998;2023-06-04T08:09:39;0.40;;;0.40;;
13485;SDS011;6815;59.336;17.998;2023-06-04T08:12:05;0.45;;;0.38;;
13485;SDS011;6815;59.336;17.998;2023-06-04T08:14:31;2.38;;;0.50;;
13485;SDS011;6815;59.336;17.998;2023-06-04T08:16:57;2.72;;;0.57;;
13485;SDS011;6815;59.336;17.998;2023-06-04T08:19:23;1.63;;;0.50;;
13485;SDS011;6815;59.336;17.998;2023-06-04T08:21:49;0.47;;;0.40;;
13485;SDS011;6815;59.336;17.998;2023-06-04T08:24:15;0.50;;;0.50;;
13485;SDS011;6815;59.336;17.998;2023-06-04T08:26:40;0.50;;;0.50;;
13485;SDS011;6815;59.336;17.998;2023-06-04T08:29:06;0.30;;;0.30;;
13485;SDS011;6815;59.336;17.998;2023-06-04T08:31:31;0.93;;;0.40;;
13485;SDS011;6815;59.336;17.998;2023-06-04T08:33:57;0.32;;;0.32;;
13485;SDS011;6815;59.336;17.998;2023-06-04T08:36:23;1.42;;;0.40;;
13485;SDS011;6815;59.336;17.998;2023-06-04T08:38:49;0.60;;;0.57;;
13485;SDS011;6815;59.336;17.998;2023-06-04T08:41:17;0.40;;;0.40;;
13485;SDS011;6815;59.336;17.998;2023-06-04T08:43:46;0.38;;;0.38;;
13485;SDS011;6815;59.336;17.998;2023-06-04T08:46:15;1.08;;;0.30;;
13485;SDS011;6815;59.336;17.998;2023-06-04T08:48:42;4.85;;;0.82;;
13485;SDS011;6815;59.336;17.998;2023-06-04T08:51:08;0.60;;;0.45;;
13485;SDS011;6815;59.336;17.998;2023-06-04T08:53:35;1.67;;;0.50;;
13485;SDS011;6815;59.336;17.998;2023-06-04T08:56:04;1.85;;;0.43;;
13485;SDS011;6815;59.336;17.998;2023-06-04T08:58:33;0.35;;;0.35;;
13485;SDS011;6815;59.336;17.998;2023-06-04T09:01:00;0.93;;;0.50;;
13485;SDS011;6815;59.336;17.998;2023-06-04T09:03:26;1.08;;;0.70;;
13485;SDS011;6815;59.336;17.998;2023-06-04T09:05:52;0.43;;;0.40;;
13485;SDS011;6815;59.336;17.998;2023-06-04T09:08:20;1.10;;;0.43;;
13485;SDS011;6815;59.336;17.998;2023-06-04T09:10:48;0.40;;;0.40;;
13485;SDS011;6815;59.336;17.998;2023-06-04T09:13:17;1.13;;;0.50;;
13485;SDS011;6815;59.336;17.998;2023-06-04T09:15:44;0.40;;;0.40;;
13485;SDS011;6815;59.336;17.998;2023-06-04T09:18:10;1.42;;;0.50;;
13485;SDS011;6815;59.336;17.998;2023-06-04T09:20:37;0.57;;;0.50;;
13485;SDS011;6815;59.336;17.998;2023-06-04T09:23:11;0.70;;;0.52;;
13485;SDS011;6815;59.336;17.998;2023-06-04T09:25:37;0.93;;;0.43;;
13485;SDS011;6815;59.336;17.998;2023-06-04T09:28:08;0.40;;;0.40;;
13485;SDS011;6815;59.336;17.998;2023-06-04T09:30:33;0.60;;;0.43;;
13485;SDS011;6815;59.336;17.998;2023-06-04T09:33:08;0.70;;;0.50;;
13485;SDS011;6815;59.336;17.998;2023-06-04T09:35:34;0.63;;;0.50;;
13485;SDS011;6815;59.336;17.998;2023-06-04T09:38:00;0.45;;;0.45;;
13485;SDS011;6815;59.336;17.998;2023-06-04T09:40:34;0.57;;;0.50;;
13485;SDS011;6815;59.336;17.998;2023-06-04T09:43:01;0.70;;;0.60;;
13485;SDS011;6815;59.336;17.998;2023-06-04T09:45:28;0.55;;;0.50;;
13485;SDS011;6815;59.336;17.998;2023-06-04T09:47:58;0.77;;;0.57;;
13485;SDS011;6815;59.336;17.998;2023-06-04T09:50:24;0.57;;;0.55;;
13485;SDS011;6815;59.336;17.998;2023-06-04T09:52:52;0.45;;;0.40;;
13485;SDS011;6815;59.336;17.998;2023-06-04T09:55:18;1.85;;;0.50;;
13485;SDS011;6815;59.336;17.998;2023-06-04T09:57:47;1.30;;;0.68;;
13485;SDS011;6815;59.336;17.998;2023-06-04T10:00:17;0.63;;;0.52;;
13485;SDS011;6815;59.336;17.998;2023-06-04T10:02:46;0.50;;;0.50;;
13485;SDS011;6815;59.336;17.998;2023-06-04T10:05:13;1.00;;;0.47;;
13485;SDS011;6815;59.336;17.998;2023-06-04T10:07:43;0.80;;;0.40;;
13485;SDS011;6815;59.336;17.998;2023-06-04T10:10:16;0.60;;;0.60;;
13485;SDS011;6815;59.336;17.998;2023-06-04T10:12:44;0.90;;;0.80;;
13485;SDS011;6815;59.336;17.998;2023-06-04T10:15:12;0.77;;;0.65;;
13485;SDS011;6815;59.336;17.998;2023-06-04T10:17:38;0.63;;;0.60;;
13485;SDS011;6815;59.336;17.998;2023-06-04T10:20:07;1.40;;;0.88;;
13485;SDS011;6815;59.336;17.998;2023-06-04T10:22:33;1.65;;;0.50;;
13485;SDS011;6815;59.336;17.998;2023-06-04T10:25:00;0.85;;;0.50;;
13485;SDS011;6815;59.336;17.998;2023-06-04T10:27:26;0.85;;;0.47;;
13485;SDS011;6815;59.336;17.998;2023-06-04T10:29:53;3.83;;;0.70;;
13485;SDS011;6815;59.336;17.998;2023-06-04T10:32:19;1.90;;;0.85;;
13485;SDS011;6815;59.336;17.998;2023-06-04T10:34:45;2.13;;;0.90;;
13485;SDS011;6815;59.336;17.998;2023-06-04T10:37:21;1.10;;;0.70;;
13485;SDS011;6815;59.336;17.998;2023-06-04T10:39:51;0.82;;;0.65;;
13485;SDS011;6815;59.336;17.998;2023-06-04T10:42:18;0.93;;;0.60;;
13485;SDS011;6815;59.336;17.998;2023-06-04T10:44:50;2.35;;;0.70;;
13485;SDS011;6815;59.336;17.998;2023-06-04T10:47:24;0.82;;;0.70;;
13485;SDS011;6815;59.336;17.998;2023-06-04T10:49:51;0.63;;;0.63;;
13485;SDS011;6815;59.336;17.998;2023-06-04T10:52:20;0.82;;;0.47;;
13485;SDS011;6815;59.336;17.998;2023-06-04T10:54:47;0.50;;;0.40;;
13485;SDS011;6815;59.336;17.998;2023-06-04T10:57:18;2.63;;;0.52;;
13485;SDS011;6815;59.336;17.998;2023-06-04T10:59:54;0.80;;;0.60;;
13485;SDS011;6815;59.336;17.998;2023-06-04T11:02:23;1.67;;;0.70;;
13485;SDS011;6815;59.336;17.998;2023-06-04T11:05:02;0.60;;;0.60;;
13485;SDS011;6815;59.336;17.998;2023-06-04T11:07:47;1.00;;;0.60;;
13485;SDS011;6815;59.336;17.998;2023-06-04T11:10:15;0.60;;;0.50;;
13485;SDS011;6815;59.336;17.998;2023-06-04T11:15:15;0.93;;;0.60;;
13485;SDS011;6815;59.336;17.998;2023-06-04T11:17:48;0.80;;;0.60;;
13485;SDS011;6815;59.336;17.998;2023-06-04T11:20:17;1.17;;;0.60;;
13485;SDS011;6815;59.336;17.998;2023-06-04T11:22:51;3.92;;;0.60;;
13485;SDS011;6815;59.336;17.998;2023-06-04T11:25:25;0.50;;;0.50;;
13485;SDS011;6815;59.336;17.998;2023-06-04T11:27:54;1.70;;;1.15;;
13485;SDS011;6815;59.336;17.998;2023-06-04T11:30:21;2.85;;;0.90;;
13485;SDS011;6815;59.336;17.998;2023-06-04T11:32:47;1.55;;;0.65;;
13485;SDS011;6815;59.336;17.998;2023-06-04T11:35:12;1.27;;;0.70;;
13485;SDS011;6815;59.336;17.998;2023-06-04T11:37:38;2.10;;;0.70;;
13485;SDS011;6815;59.336;17.998;2023-06-04T11:42:42;1.38;;;0.52;;
13485;SDS011;6815;59.336;17.998;2023-06-04T11:45:10;1.45;;;0.60;;
13485;SDS011;6815;59.336;17.998;2023-06-04T11:47:37;1.17;;;0.80;;
13485;SDS011;6815;59.336;17.998;2023-06-04T11:50:02;0.68;;;0.60;;
13485;SDS011;6815;59.336;17.998;2023-06-04T11:52:28;0.63;;;0.60;;
13485;SDS011;6815;59.336;17.998;2023-06-04T11:54:54;1.83;;;0.70;;
13485;SDS011;6815;59.336;17.998;2023-06-04T11:57:19;0.68;;;0.50;;
13485;SDS011;6815;59.336;17.998;2023-06-04T11:59:46;0.50;;;0.50;;
13485;SDS011;6815;59.336;17.998;2023-06-04T12:02:11;0.50;;;0.50;;
13485;SDS011;6815;59.336;17.998;2023-06-04T12:04:37;1.15;;;0.70;;
13485;SDS011;6815;59.336;17.998;2023-06-04T12:07:03;0.68;;;0.68;;
13485;SDS011;6815;59.336;17.998;2023-06-04T12:09:31;0.50;;;0.40;;
13485;SDS011;6815;59.336;17.998;2023-06-04T12:12:03;0.68;;;0.68;;
13485;SDS011;6815;59.336;17.998;2023-06-04T12:14:30;0.80;;;0.60;;
13485;SDS011;6815;59.336;17.998;2023-06-04T12:19:24;0.68;;;0.60;;
13485;SDS011;6815;59.336;17.998;2023-06-04T12:22:01;1.05;;;0.88;;
13485;SDS011;6815;59.336;17.998;2023-06-04T12:24:34;0.52;;;0.50;;
13485;SDS011;6815;59.336;17.998;2023-06-04T12:27:11;0.50;;;0.50;;
13485;SDS011;6815;59.336;17.998;2023-06-04T12:29:37;2.42;;;0.75;;
13485;SDS011;6815;59.336;17.998;2023-06-04T12:34:30;0.43;;;0.40;;
13485;SDS011;6815;59.336;17.998;2023-06-04T12:36:56;1.42;;;0.43;;
13485;SDS011;6815;59.336;17.998;2023-06-04T12:39:22;0.93;;;0.40;;
13485;SDS011;6815;59.336;17.998;2023-06-04T12:41:47;1.02;;;0.65;;
13485;SDS011;6815;59.336;17.998;2023-06-04T12:44:13;1.15;;;0.70;;
13485;SDS011;6815;59.336;17.998;2023-06-04T12:46:39;1.30;;;0.60;;
13485;SDS011;6815;59.336;17.998;2023-06-04T12:49:04;0.50;;;0.50;;
13485;SDS011;6815;59.336;17.998;2023-06-04T12:51:30;0.70;;;0.60;;
13485;SDS011;6815;59.336;17.998;2023-06-04T12:53:56;1.30;;;0.50;;
13485;SDS011;6815;59.336;17.998;2023-06-04T12:56:22;0.65;;;0.50;;
13485;SDS011;6815;59.336;17.998;2023-06-04T12:58:47;0.60;;;0.60;;
13485;SDS011;6815;59.336;17.998;2023-06-04T13:01:13;0.65;;;0.65;;
13485;SDS011;6815;59.336;17.998;2023-06-04T13:03:39;1.05;;;0.70;;
13485;SDS011;6815;59.336;17.998;2023-06-04T13:06:05;0.88;;;0.60;;
13485;SDS011;6815;59.336;17.998;2023-06-04T13:08:31;0.73;;;0.65;;
13485;SDS011;6815;59.336;17.998;2023-06-04T13:10:57;0.60;;;0.50;;
13485;SDS011;6815;59.336;17.998;2023-06-04T13:13:22;2.40;;;0.50;;
13485;SDS011;6815;59.336;17.998;2023-06-04T13:15:48;0.73;;;0.60;;
13485;SDS011;6815;59.336;17.998;2023-06-04T13:18:13;0.60;;;0.60;;
13485;SDS011;6815;59.336;17.998;2023-06-04T13:20:41;0.60;;;0.60;;
13485;SDS011;6815;59.336;17.998;2023-06-04T13:23:07;1.20;;;0.65;;
13485;SDS011;6815;59.336;17.998;2023-06-04T13:25:33;0.60;;;0.60;;
13485;SDS011;6815;59.336;17.998;2023-06-04T13:27:59;0.75;;;0.60;;
13485;SDS011;6815;59.336;17.998;2023-06-04T13:30:25;2.35;;;0.80;;
13485;SDS011;6815;59.336;17.998;2023-06-04T13:32:52;1.00;;;0.50;;
13485;SDS011;6815;59.336;17.998;2023-06-04T13:35:18;3.72;;;0.70;;
13485;SDS011;6815;59.336;17.998;2023-06-04T13:37:43;1.65;;;0.70;;
13485;SDS011;6815;59.336;17.998;2023-06-04T13:40:09;0.50;;;0.50;;
13485;SDS011;6815;59.336;17.998;2023-06-04T13:42:34;1.05;;;0.82;;
13485;SDS011;6815;59.336;17.998;2023-06-04T13:45:00;0.68;;;0.68;;
13485;SDS011;6815;59.336;17.998;2023-06-04T13:47:25;0.98;;;0.68;;
13485;SDS011;6815;59.336;17.998;2023-06-04T13:49:51;0.80;;;0.80;;
13485;SDS011;6815;59.336;17.998;2023-06-04T13:52:16;1.27;;;0.60;;
13485;SDS011;6815;59.336;17.998;2023-06-04T13:54:42;1.25;;;0.77;;
13485;SDS011;6815;59.336;17.998;2023-06-04T13:57:07;2.13;;;1.60;;
13485;SDS011;6815;59.336;17.998;2023-06-04T13:59:36;4.05;;;2.20;;
13485;SDS011;6815;59.336;17.998;2023-06-04T14:02:02;1.50;;;1.38;;
13485;SDS011;6815;59.336;17.998;2023-06-04T14:04:27;0.77;;;0.70;;
13485;SDS011;6815;59.336;17.998;2023-06-04T14:06:53;0.70;;;0.70;;
13485;SDS011;6815;59.336;17.998;2023-06-04T14:09:18;1.63;;;0.70;;
13485;SDS011;6815;59.336;17.998;2023-06-04T14:11:44;1.30;;;0.60;;
13485;SDS011;6815;59.336;17.998;2023-06-04T14:14:14;0.50;;;0.43;;
13485;SDS011;6815;59.336;17.998;2023-06-04T14:16:40;0.60;;;0.60;;
13485;SDS011;6815;59.336;17.998;2023-06-04T14:19:05;0.93;;;0.70;;
13485;SDS011;6815;59.336;17.998;2023-06-04T14:21:30;1.52;;;0.60;;
13485;SDS011;6815;59.336;17.998;2023-06-04T14:23:56;0.60;;;0.52;;
13485;SDS011;6815;59.336;17.998;2023-06-04T14:26:21;9.02;;;0.88;;
13485;SDS011;6815;59.336;17.998;2023-06-04T14:28:47;2.58;;;0.77;;
13485;SDS011;6815;59.336;17.998;2023-06-04T14:31:12;1.30;;;0.68;;
13485;SDS011;6815;59.336;17.998;2023-06-04T14:33:38;0.52;;;0.52;;
13485;SDS011;6815;59.336;17.998;2023-06-04T14:36:03;1.70;;;0.77;;
13485;SDS011;6815;59.336;17.998;2023-06-04T14:38:29;1.48;;;0.57;;
13485;SDS011;6815;59.336;17.998;2023-06-04T14:40:54;1.95;;;0.57;;
13485;SDS011;6815;59.336;17.998;2023-06-04T14:43:21;0.60;;;0.50;;
13485;SDS011;6815;59.336;17.998;2023-06-04T14:45:47;0.60;;;0.52;;
13485;SDS011;6815;59.336;17.998;2023-06-04T14:48:12;1.05;;;0.60;;
13485;SDS011;6815;59.336;17.998;2023-06-04T14:50:38;1.10;;;0.65;;
13485;SDS011;6815;59.336;17.998;2023-06-04T14:53:03;1.10;;;0.70;;
13485;SDS011;6815;59.336;17.998;2023-06-04T14:55:32;0.98;;;0.70;;
13485;SDS011;6815;59.336;17.998;2023-06-04T14:57:57;1.70;;;0.60;;
13485;SDS011;6815;59.336;17.998;2023-06-04T15:00:23;1.20;;;0.90;;